Nearby METAR Reports

 

KC09 - Morris-Washburn, Illinois, USA
Distance from station: NW 9mi, 14km
Updated: Tue, 21-Nov-2017 4:55pm CST
Partly cloudy
Partly cloudy
 Wind from NW
Wind: NW 9 mph , 15 km/h
Temperature: 32°F , 0°C
Wind Chill: 24°F , -4°C
Dew Point: 23°F , -5°C
Humidity: 69%
Barometer: 30.07 inHg , 1018.3 hPa
Clouds: Partly cloudy
Visibility: 10 miles , 16 km
Cloud details: Partly cloudy 4600 ft
2017/11/21 22:55 KC09 212255Z AUTO 31008KT 10SM SCT046 00/M05 A3007 RMK AO2 T00001048
KJOT - Joliet, Illinois, USA
Distance from station: NNE 13mi, 22km
Updated: Tue, 21-Nov-2017 4:55pm CST
Clear
Clear
 Wind from NW
Wind: NW 5 mph , 7 km/h
Temperature: 34°F , 1°C
Wind Chill: 29°F , -2°C
Dew Point: 23°F , -5°C
Humidity: 65%
Barometer: 30.08 inHg , 1018.6 hPa
Clouds: Clear
Visibility: 10 miles , 16 km
2017/11/21 22:55 KJOT 212255Z AUTO 31004KT 10SM CLR 01/M05 A3008 RMK AO2 T00131055
 
KLOT - Romeoville/Chi, Illinois, USA
Distance from station: NNE 21mi, 33km
Updated: Tue, 21-Nov-2017 4:55pm CST
Partly cloudy
Partly cloudy
 Wind from NNW
Wind: NNW 8 mph , 13 km/h
Temperature: 32°F , 0°C
Wind Chill: 25°F , -4°C
Dew Point: 21°F , -6°C
Humidity: 64%
Barometer: 30.07 inHg , 1018.3 hPa
Clouds: Partly cloudy
Visibility: 10 miles , 16 km
Cloud details: Partly cloudy 4400 ft
2017/11/21 22:55 KLOT 212255Z AUTO 33007KT 10SM SCT044 00/M06 A3007 RMK AO2 T00041058
KIKK - Kankakee, Illinois, USA
Distance from station: SE 30mi, 48km
Updated: Tue, 21-Nov-2017 4:55pm CST
Clear
Clear
 Wind from WNW
Wind: WNW 10 mph , 17 km/h
Temperature: 34°F , 1°C
Wind Chill: 26°F , -3°C
Dew Point: 23°F , -5°C
Humidity: 65%
Barometer: 30.08 inHg , 1018.6 hPa
Clouds: Clear
Visibility: 10 miles , 16 km
2017/11/21 22:55 KIKK 212255Z AUTO 30009KT 10SM CLR 01/M05 A3008 RMK AO2 T00051050
 
KARR - Chicago/Aurora, Illinois, USA
Distance from station: NNW 31mi, 50km
Updated: Tue, 21-Nov-2017 4:52pm CST
Partly cloudy
Partly cloudy
 Wind from WNW
Wind: WNW 9 mph , 15 km/h
Temperature: 30°F , -1°C
Wind Chill: 22°F , -6°C
Dew Point: 21°F , -6°C
Humidity: 69%
Barometer: 30.07 inHg , 1018.3 hPa
Clouds: Partly cloudy
Visibility: 10 miles , 16 km
Cloud details: Partly cloudy 4600 ft
2017/11/21 22:52 KARR 212252Z 30008KT 10SM SCT046 M01/M06 A3007 RMK AO2 SLP189 T10061056
KPNT - Pontiac, Illinois, USA
Distance from station: SSW 34mi, 54km
Updated: Tue, 21-Nov-2017 4:55pm CST
Overcast
Overcast
 Wind from NW
Wind: NW 12 mph , 19 km/h
Temperature: 34°F , 1°C
Wind Chill: 25°F , -4°C
Dew Point: 25°F , -4°C
Humidity: 70%
Barometer: 30.11 inHg , 1019.6 hPa
Clouds: Overcast
Visibility: 10 miles , 16 km
Cloud details: Overcast 3600 ft
2017/11/21 22:55 KPNT 212255Z AUTO 31010KT 10SM OVC036 01/M04 A3011 RMK AO2 T00111041
 
KDPA - Chicago/Dupage, Illinois, USA
Distance from station: N 40mi, 64km
Updated: Tue, 21-Nov-2017 4:52pm CST
Few Clouds
Few Clouds
 Wind from NNW
Wind: NNW 12 mph , 19 km/h
Temperature: 32°F , 0°C
Wind Chill: 23°F , -5°C
Dew Point: 19°F , -7°C
Humidity: 60%
Barometer: 30.05 inHg , 1017.6 hPa
Clouds: Few Clouds
Visibility: 9 miles , 14 km
Cloud details: Few Clouds 4500 ft
2017/11/21 22:52 KDPA 212252Z 33010KT 9SM FEW045 00/M07 A3005 RMK AO2 SLP182 T00001072
KIGQ - Chicago/Lansing, Illinois, USA
Distance from station: ENE 42mi, 67km
Updated: Tue, 21-Nov-2017 4:55pm CST
Clear
Clear
 Wind from NW
Wind: NW 14 mph , 22 km/h, Gust: 23 mph , 37 km/h
Temperature: 34°F , 1°C
Wind Chill: 25°F , -4°C
Dew Point: 23°F , -5°C
Humidity: 65%
Barometer: 30.05 inHg , 1017.6 hPa
Clouds: Clear
Visibility: 10 miles , 16 km
2017/11/21 22:55 KIGQ 212255Z AUTO 31012G20KT 10SM CLR 01/M05 A3005 RMK AO2 T00101055
 
KMDW - Chicago, Illinois, USA
Distance from station: NE 42mi, 67km
Updated: Tue, 21-Nov-2017 4:53pm CST
Partly cloudy
Partly cloudy
 Wind from NNW
Wind: NNW 14 mph , 22 km/h
Temperature: 34°F , 1°C
Wind Chill: 25°F , -4°C
Dew Point: 19°F , -7°C
Humidity: 56%
Barometer: 30.06 inHg , 1017.9 hPa
Clouds: Partly cloudy
Visibility: 10 miles , 16 km
Cloud details: Partly cloudy 4500 ft
Partly cloudy 25000 ft
2017/11/21 22:53 KMDW 212253Z 33012KT 10SM SCT045 SCT250 01/M07 A3006 RMK AO2 SLP188 T00111072
KVYS - Peru, Illinois, USA
Distance from station: W 44mi, 71km
Updated: Tue, 21-Nov-2017 4:55pm CST
Overcast
Overcast
 Wind from NW
Wind: NW 10 mph , 17 km/h
Temperature: 32°F , 0°C
Wind Chill: 24°F , -4°C
Dew Point: 23°F , -5°C
Humidity: 69%
Barometer: 30.12 inHg , 1020 hPa
Clouds: Overcast
Visibility: 10 miles , 16 km
Cloud details: Overcast 4000 ft
2017/11/21 22:55 KVYS 212255Z AUTO 32009KT 10SM OVC040 00/M05 A3012 RMK AO2 T00021050
 
KDKB - De Kalb, Illinois, USA
Distance from station: NNW 46mi, 74km
Updated: Tue, 21-Nov-2017 4:55pm CST
Partly cloudy
Partly cloudy
 Wind from NW
Wind: NW 12 mph , 19 km/h
Temperature: 32°F , 0°C
Wind Chill: 23°F , -5°C
Dew Point: 21°F , -6°C
Humidity: 64%
Barometer: 30.07 inHg , 1018.3 hPa
Clouds: Partly cloudy
Visibility: 10 miles , 16 km
Cloud details: Partly cloudy 4200 ft
2017/11/21 22:55 KDKB 212255Z AUTO 31010KT 10SM SCT042 00/M06 A3007 RMK AO2 T10021061
KORD - Chicago O'hare, Illinois, USA
Distance from station: NNE 48mi, 78km
Updated: Tue, 21-Nov-2017 4:51pm CST
Partly cloudy
Partly cloudy
 Wind from NNW
Wind: NNW 13 mph , 20 km/h
Temperature: 34°F , 1°C
Wind Chill: 25°F , -4°C
Dew Point: 18°F , -8°C
Humidity: 51%
Barometer: 30.05 inHg , 1017.6 hPa
Clouds: Partly cloudy
Visibility: 10 miles , 16 km
Cloud details: Partly cloudy 4300 ft
Partly cloudy 25000 ft
2017/11/21 22:51 KORD 212251Z 33011KT 10SM SCT043 SCT250 01/M08 A3005 RMK AO2 SLP180 T00111083
 
KGYY - Gary Regional, Indiana, USA
Distance from station: ENE 49mi, 80km
Updated: Tue, 21-Nov-2017 4:45pm CST
Partly cloudy
Partly cloudy
 Wind from WNW
Wind: WNW 10 mph , 17 km/h, Gust: 30 mph , 48 km/h
Temperature: 36°F , 2°C
Wind Chill: 29°F , -2°C
Dew Point: 18°F , -8°C
Humidity: 48%
Barometer: 30.05 inHg , 1017.6 hPa
Clouds: Partly cloudy
Visibility: 10 miles , 16 km
Cloud details: Partly cloudy 25000 ft
2017/11/21 22:45 KGYY 212245Z 30009G26KT 10SM SCT250 02/M08 A3005 RMK PRRR